createdAt,value
2022-09-12T00:02:25.235Z,61.82
2022-09-12T00:04:52.889Z,61.69
2022-09-12T00:07:20.595Z,61.85
2022-09-12T00:09:48.353Z,61.70
2022-09-12T00:12:15.923Z,61.90
2022-09-12T00:14:44.989Z,61.93
2022-09-12T00:17:12.866Z,61.77
2022-09-12T00:19:40.517Z,61.86
2022-09-12T00:22:08.148Z,61.81
2022-09-12T00:24:35.746Z,61.89
2022-09-12T00:27:03.423Z,61.90
2022-09-12T00:29:31.274Z,61.92
2022-09-12T00:32:00.418Z,62.16
2022-09-12T00:34:28.025Z,62.05
2022-09-12T00:36:55.711Z,61.90
2022-09-12T00:39:23.401Z,62.20
2022-09-12T00:41:51.197Z,62.15
2022-09-12T00:44:44.805Z,61.99
2022-09-12T00:47:15.644Z,62.26
2022-09-12T00:49:45.070Z,62.19
2022-09-12T00:52:13.633Z,62.07
2022-09-12T00:54:44.549Z,62.30
2022-09-12T00:57:12.235Z,62.25
2022-09-12T00:59:40.986Z,62.36
2022-09-12T01:02:08.893Z,62.24
2022-09-12T01:04:38.116Z,62.37
2022-09-12T01:07:06.056Z,62.13
2022-09-12T01:09:33.672Z,62.30
2022-09-12T01:17:13.072Z,62.46
2022-09-12T01:19:58.737Z,62.12
2022-09-12T01:22:39.169Z,62.03
2022-09-12T01:25:12.509Z,62.11
2022-09-12T01:27:48.152Z,62.24
2022-09-12T01:30:25.999Z,62.10
2022-09-12T01:33:14.768Z,62.21
2022-09-12T01:35:46.888Z,61.93
2022-09-12T01:38:19.771Z,62.24
2022-09-12T01:40:49.752Z,62.39
2022-09-12T01:43:21.129Z,62.20
2022-09-12T01:45:54.289Z,62.34
2022-09-12T01:48:23.478Z,62.17
2022-09-12T01:50:52.645Z,62.12
2022-09-12T01:53:22.020Z,62.58
2022-09-12T01:55:51.330Z,61.97
2022-09-12T01:58:20.453Z,62.31
2022-09-12T02:00:55.726Z,62.21
2022-09-12T02:03:25.272Z,62.34
2022-09-12T02:05:54.682Z,62.14
2022-09-12T02:08:24.627Z,62.56
2022-09-12T02:10:54.593Z,62.15
2022-09-12T02:13:24.019Z,62.59
2022-09-12T02:15:54.861Z,62.24
2022-09-12T02:18:22.456Z,61.86
2022-09-12T02:20:50.499Z,62.54
2022-09-12T02:23:21.714Z,62.59
2022-09-12T02:25:50.390Z,62.54
2022-09-12T02:28:19.490Z,62.35
2022-09-12T02:30:51.673Z,62.53
2022-09-12T02:33:26.604Z,62.29
2022-09-12T02:35:55.159Z,62.31
2022-09-12T02:38:26.411Z,62.23
2022-09-12T02:40:54.069Z,62.32
2022-09-12T02:43:21.729Z,62.30
2022-09-12T02:45:49.447Z,62.30
2022-09-12T02:48:19.287Z,62.22
2022-09-12T02:50:48.296Z,61.94
2022-09-12T02:53:15.970Z,61.88
2022-09-12T02:55:43.635Z,61.87
2022-09-12T02:58:12.315Z,61.98
2022-09-12T03:00:49.106Z,61.82
2022-09-12T03:03:26.240Z,62.24
2022-09-12T03:05:56.940Z,61.92
2022-09-12T03:09:00.312Z,61.81
2022-09-12T03:11:40.928Z,62.42
2022-09-12T03:14:13.878Z,62.41
2022-09-12T03:16:43.406Z,62.39
2022-09-12T03:19:17.415Z,62.25
2022-09-12T03:21:51.235Z,62.52
2022-09-12T03:24:19.636Z,62.30
2022-09-12T03:26:48.996Z,62.62
2022-09-12T03:29:16.906Z,62.16
2022-09-12T03:31:50.257Z,62.61
2022-09-12T03:34:18.374Z,62.62
2022-09-12T03:36:47.452Z,62.63
2022-09-12T03:39:15.091Z,62.49
2022-09-12T03:41:42.915Z,62.62
2022-09-12T03:44:10.744Z,62.16
2022-09-12T03:46:38.509Z,62.48
2022-09-12T03:49:06.085Z,62.37
2022-09-12T03:51:33.751Z,62.32
2022-09-12T03:54:03.013Z,62.57
2022-09-12T03:56:31.014Z,62.61
2022-09-12T03:58:58.727Z,62.52
2022-09-12T04:01:26.443Z,62.32
2022-09-12T04:03:54.167Z,62.30
2022-09-12T04:06:22.911Z,62.61
2022-09-12T04:08:51.512Z,62.24
2022-09-12T04:11:21.148Z,62.12
2022-09-12T04:13:48.908Z,62.65
2022-09-12T04:16:17.502Z,62.29
2022-09-12T04:18:45.325Z,62.44
2022-09-12T04:21:15.522Z,62.34
2022-09-12T04:23:43.236Z,62.58
2022-09-12T04:26:11.172Z,62.91
2022-09-12T04:28:40.197Z,62.55
2022-09-12T04:31:09.121Z,62.73
2022-09-12T04:33:36.852Z,62.61
2022-09-12T04:36:06.269Z,62.84
2022-09-12T04:38:34.163Z,62.67
2022-09-12T04:41:01.889Z,62.38
2022-09-12T04:43:29.573Z,62.62
2022-09-12T04:45:58.590Z,62.87
2022-09-12T04:48:26.945Z,62.42
2022-09-12T04:50:54.653Z,62.85
2022-09-12T04:53:22.280Z,62.74
2022-09-12T04:55:49.978Z,62.82
2022-09-12T04:58:17.574Z,62.52
2022-09-12T05:00:45.147Z,62.72
2022-09-12T05:03:14.215Z,62.62
2022-09-12T05:05:41.863Z,62.90
2022-09-12T05:08:09.498Z,62.48
2022-09-12T05:10:37.288Z,62.92
2022-09-12T05:13:04.937Z,62.55
2022-09-12T05:15:32.588Z,62.45
2022-09-12T05:18:00.411Z,62.51
2022-09-12T05:20:29.379Z,62.25
2022-09-12T05:22:57.145Z,62.32
2022-09-12T05:25:24.729Z,62.54
2022-09-12T05:27:53.478Z,62.57
2022-09-12T05:30:21.308Z,62.18
2022-09-12T05:32:49.630Z,62.46
2022-09-12T05:35:18.454Z,62.12
2022-09-12T05:37:47.480Z,62.06
2022-09-12T05:40:17.747Z,62.13
2022-09-12T05:42:45.420Z,61.88
2022-09-12T05:45:14.148Z,61.93
2022-09-12T05:47:41.935Z,61.90
2022-09-12T05:50:10.974Z,62.02
2022-09-12T05:52:38.700Z,61.71
2022-09-12T05:55:08.456Z,61.85
2022-09-12T05:57:36.335Z,61.36
2022-09-12T06:00:05.285Z,61.33
2022-09-12T06:02:32.977Z,61.20
2022-09-12T06:05:00.886Z,60.55
2022-09-12T06:07:29.619Z,60.60
2022-09-12T06:09:59.259Z,60.27
2022-09-12T06:12:29.944Z,60.33
2022-09-12T06:14:57.752Z,59.65
2022-09-12T06:17:25.626Z,58.92
2022-09-12T06:19:55.264Z,58.43
2022-09-12T06:22:22.925Z,57.81
2022-09-12T06:24:52.789Z,56.72
2022-09-12T06:27:23.719Z,55.73
2022-09-12T06:29:52.937Z,54.65
2022-09-12T06:32:20.657Z,54.07
2022-09-12T06:34:48.488Z,53.71
2022-09-12T06:37:16.366Z,53.07
2022-09-12T06:39:44.460Z,52.08
2022-09-12T06:42:24.850Z,51.47
2022-09-12T06:44:55.333Z,49.78
2022-09-12T06:47:23.520Z,48.88
2022-09-12T06:49:54.618Z,48.73
2022-09-12T06:52:22.530Z,48.46
2022-09-12T06:54:50.294Z,48.50
2022-09-12T06:57:18.230Z,48.58
2022-09-12T06:59:45.894Z,47.95
2022-09-12T07:02:15.497Z,47.29
2022-09-12T07:04:43.350Z,46.98
2022-09-12T07:07:11.294Z,46.00
2022-09-12T07:09:44.624Z,45.39
2022-09-12T07:15:03.611Z,44.68
2022-09-12T07:17:33.086Z,44.40
2022-09-12T07:20:00.902Z,44.25
2022-09-12T07:22:28.986Z,43.49
2022-09-12T07:24:58.081Z,43.30
2022-09-12T07:27:25.967Z,43.49
2022-09-12T07:29:54.004Z,43.42
2022-09-12T07:32:23.360Z,43.68
2022-09-12T07:34:52.532Z,43.81
2022-09-12T07:37:20.211Z,43.74
2022-09-12T07:39:48.120Z,43.63
2022-09-12T07:42:15.948Z,43.55
2022-09-12T07:44:44.458Z,43.89
2022-09-12T07:47:12.208Z,43.75
2022-09-12T07:49:40.543Z,43.88
2022-09-12T07:52:09.803Z,43.84
2022-09-12T07:54:37.527Z,44.54
2022-09-12T07:57:05.292Z,44.67
2022-09-12T07:59:51.374Z,45.30
2022-09-12T08:02:20.310Z,44.95
2022-09-12T08:04:48.520Z,44.84
2022-09-12T08:07:19.230Z,44.83
2022-09-12T08:09:47.336Z,44.63
2022-09-12T08:12:18.253Z,44.08
2022-09-12T08:14:45.920Z,44.84
2022-09-12T08:17:14.256Z,44.51
2022-09-12T08:19:41.964Z,44.78
2022-09-12T08:22:09.884Z,43.96
2022-09-12T08:24:40.247Z,44.03
2022-09-12T08:27:07.989Z,44.05
2022-09-12T08:29:35.782Z,42.66
2022-09-12T08:32:04.280Z,41.99
2022-09-12T08:34:32.425Z,41.04
2022-09-12T08:37:00.164Z,40.80
2022-09-12T08:39:28.034Z,39.90
2022-09-12T08:41:59.702Z,39.42
2022-09-12T08:44:45.792Z,39.06
2022-09-12T08:47:21.112Z,38.53
2022-09-12T08:49:57.270Z,38.17
2022-09-12T08:52:28.303Z,38.03
2022-09-12T08:54:56.441Z,37.92
2022-09-12T08:57:25.692Z,36.83
2022-09-12T08:59:54.156Z,36.31
2022-09-12T09:02:31.003Z,36.18
2022-09-12T09:05:00.515Z,34.85
2022-09-12T09:07:52.779Z,32.83
2022-09-12T09:10:24.123Z,32.44
2022-09-12T09:12:56.157Z,30.40
2022-09-12T09:15:32.130Z,30.10
2022-09-12T09:18:01.103Z,28.90
2022-09-12T09:20:31.600Z,27.75
2022-09-12T09:23:12.464Z,27.82
2022-09-12T09:25:44.610Z,27.21
2022-09-12T09:28:17.229Z,27.75
2022-09-12T09:30:46.022Z,27.20
2022-09-12T09:33:19.750Z,26.98
2022-09-12T09:35:49.091Z,26.65
2022-09-12T09:38:25.852Z,26.39
2022-09-12T09:41:03.546Z,27.09
2022-09-12T09:43:32.983Z,25.72
2022-09-12T09:55:25.785Z,21.67
2022-09-12T09:57:53.623Z,21.69
2022-09-12T10:00:31.654Z,21.59
2022-09-12T10:03:04.648Z,20.09
2022-09-12T10:05:34.564Z,20.18
2022-09-12T10:08:02.337Z,20.00
2022-09-12T10:10:30.153Z,19.24
2022-09-12T10:13:09.089Z,18.71
2022-09-12T10:15:38.762Z,18.85
2022-09-12T10:18:06.940Z,17.27
2022-09-12T10:20:36.063Z,17.09
2022-09-12T10:23:16.561Z,17.42
2022-09-12T10:25:47.195Z,16.94
2022-09-12T10:28:21.945Z,15.69
2022-09-12T10:30:54.850Z,14.80
2022-09-12T10:33:22.733Z,14.76
2022-09-12T10:35:50.465Z,14.54
2022-09-12T10:38:21.598Z,14.47
2022-09-12T10:40:57.037Z,14.45
2022-09-12T10:43:28.056Z,13.83
2022-09-12T10:45:59.800Z,13.15
2022-09-12T10:48:30.363Z,13.31
2022-09-12T10:50:58.182Z,12.95
2022-09-12T10:53:29.916Z,13.00
2022-09-12T10:56:05.349Z,13.25
2022-09-12T10:58:59.388Z,12.38
2022-09-12T11:01:38.176Z,12.41
2022-09-12T11:04:16.733Z,12.52
2022-09-12T11:06:48.153Z,12.87
2022-09-12T11:09:18.322Z,12.62
2022-09-12T11:11:56.788Z,12.59
2022-09-12T11:14:46.158Z,12.13
2022-09-12T11:17:22.250Z,12.50
2022-09-12T11:20:01.701Z,12.60
2022-09-12T11:22:36.740Z,12.57
2022-09-12T11:25:22.231Z,12.36
2022-09-12T11:28:02.770Z,12.14
2022-09-12T11:30:31.487Z,12.03
2022-09-12T11:33:09.127Z,11.73
2022-09-12T11:35:39.080Z,11.89
2022-09-12T11:38:27.924Z,11.53
2022-09-12T11:40:56.608Z,11.01
2022-09-12T11:43:32.982Z,10.58
2022-09-12T11:46:02.230Z,11.65
2022-09-12T11:48:38.482Z,11.57
2022-09-12T11:51:07.768Z,12.02
2022-09-12T11:53:37.493Z,11.55
2022-09-12T11:56:07.228Z,13.36
2022-09-12T11:58:39.643Z,14.13
2022-09-12T12:01:12.627Z,14.25
2022-09-12T12:03:43.542Z,15.46
2022-09-12T12:06:13.168Z,16.44
2022-09-12T12:08:42.629Z,17.22
2022-09-12T12:11:10.925Z,18.65
2022-09-12T12:13:40.284Z,19.67
2022-09-12T12:16:09.061Z,21.09
2022-09-12T12:18:38.138Z,21.72
2022-09-12T12:21:27.763Z,21.81
2022-09-12T12:24:19.818Z,23.01
2022-09-12T12:27:01.163Z,24.42
2022-09-12T12:29:41.572Z,24.95
2022-09-12T12:32:24.686Z,25.55
2022-09-12T12:34:52.365Z,26.10
2022-09-12T12:37:51.947Z,26.27
2022-09-12T12:40:29.312Z,26.90
2022-09-12T12:43:05.072Z,26.88
2022-09-12T12:46:12.592Z,27.09
2022-09-12T12:49:04.894Z,26.92
2022-09-12T12:52:02.268Z,27.24
2022-09-12T12:54:53.609Z,27.72
2022-09-12T12:57:39.377Z,27.55
2022-09-12T13:00:09.851Z,27.58
2022-09-12T13:02:39.475Z,28.28
2022-09-12T13:05:08.556Z,28.16
2022-09-12T13:07:37.440Z,27.92
2022-09-12T13:10:05.872Z,27.37
2022-09-12T13:12:35.554Z,28.02
2022-09-12T13:15:03.421Z,28.10
2022-09-12T13:17:34.088Z,28.36
2022-09-12T13:20:30.888Z,28.63
2022-09-12T13:23:00.192Z,28.47
2022-09-12T13:25:30.139Z,28.50
2022-09-12T13:28:00.555Z,28.14
2022-09-12T13:30:28.430Z,29.21
2022-09-12T13:32:58.099Z,29.08
2022-09-12T13:35:30.950Z,29.51
2022-09-12T13:37:59.268Z,29.00
2022-09-12T13:40:31.905Z,29.39
2022-09-12T13:43:15.009Z,29.72
2022-09-12T13:45:42.953Z,28.95
2022-09-12T13:48:15.119Z,29.19
2022-09-12T13:50:43.908Z,28.59
2022-09-12T13:53:14.924Z,29.06
2022-09-12T13:55:43.763Z,29.63
2022-09-12T13:58:20.862Z,29.90
2022-09-12T14:00:48.552Z,29.63
2022-09-12T14:03:44.870Z,29.23
2022-09-12T14:06:12.877Z,29.79
2022-09-12T14:08:41.602Z,30.18
2022-09-12T14:11:09.748Z,30.09
2022-09-12T14:13:39.718Z,29.72
2022-09-12T14:16:09.755Z,29.28
2022-09-12T14:18:38.322Z,28.92
2022-09-12T14:21:10.574Z,28.01
2022-09-12T14:23:39.370Z,27.40
2022-09-12T14:26:08.173Z,28.19
2022-09-12T14:28:36.167Z,27.92
2022-09-12T14:31:07.654Z,28.14
2022-09-12T14:33:41.384Z,27.73
2022-09-12T14:36:11.995Z,27.43
2022-09-12T14:38:42.656Z,27.44
2022-09-12T14:41:11.266Z,27.32
2022-09-12T14:43:40.063Z,26.70
2022-09-12T14:46:17.331Z,26.67
2022-09-12T14:48:48.185Z,26.57
2022-09-12T14:51:19.665Z,27.00
2022-09-12T14:53:48.867Z,26.48
2022-09-12T14:56:16.603Z,27.25
2022-09-12T14:58:44.477Z,27.46
2022-09-12T15:01:27.621Z,27.16
2022-09-12T15:03:56.658Z,27.33
2022-09-12T15:06:28.172Z,27.19
2022-09-12T15:08:56.309Z,27.50
2022-09-12T15:11:24.199Z,28.26
2022-09-12T15:13:53.062Z,27.86
2022-09-12T15:16:20.808Z,28.49
2022-09-12T15:18:49.963Z,28.50
2022-09-12T15:21:18.515Z,28.43
2022-09-12T15:23:47.303Z,27.88
2022-09-12T15:26:16.739Z,28.64
2022-09-12T15:28:44.441Z,28.64
2022-09-12T15:31:14.531Z,28.54
2022-09-12T15:33:42.346Z,28.79
2022-09-12T15:36:15.304Z,29.29
2022-09-12T15:38:43.223Z,28.57
2022-09-12T15:41:12.768Z,28.43
2022-09-12T15:43:40.494Z,28.44
2022-09-12T15:46:10.024Z,29.07
2022-09-12T15:48:37.998Z,29.42
2022-09-12T15:51:06.067Z,29.61
2022-09-12T15:53:35.100Z,29.38
2022-09-12T15:56:03.561Z,29.75
2022-09-12T15:58:31.277Z,29.86
2022-09-12T16:00:59.147Z,29.87
2022-09-12T16:03:37.987Z,30.20
2022-09-12T16:06:14.067Z,30.16
2022-09-12T16:08:43.764Z,30.01
2022-09-12T16:11:13.174Z,30.50
2022-09-12T16:13:40.948Z,30.67
2022-09-12T16:16:10.008Z,30.69
2022-09-12T16:18:38.872Z,30.39
2022-09-12T16:21:11.293Z,30.52
2022-09-12T16:23:44.696Z,31.09
2022-09-12T16:26:12.423Z,31.14
2022-09-12T16:28:40.239Z,30.77
2022-09-12T16:31:09.171Z,30.94
2022-09-12T16:33:37.966Z,31.11
2022-09-12T16:36:06.838Z,32.16
2022-09-12T16:38:35.893Z,31.59
2022-09-12T16:41:05.716Z,31.57
2022-09-12T16:43:33.721Z,32.38
2022-09-12T16:46:03.061Z,32.00
2022-09-12T16:48:30.946Z,32.11
2022-09-12T16:50:58.853Z,32.42
2022-09-12T16:53:26.602Z,32.60
2022-09-12T16:55:54.263Z,32.52
2022-09-12T16:58:23.462Z,32.38
2022-09-12T17:00:51.125Z,32.60
2022-09-12T17:03:18.878Z,32.85
2022-09-12T17:05:46.613Z,32.88
2022-09-12T17:08:15.396Z,33.23
2022-09-12T17:10:42.975Z,33.16
2022-09-12T17:13:10.689Z,33.61
2022-09-12T17:15:39.788Z,33.90
2022-09-12T17:18:07.761Z,34.35
2022-09-12T17:20:36.496Z,34.60
2022-09-12T17:23:07.744Z,34.52
2022-09-12T17:25:37.461Z,34.70
2022-09-12T17:28:06.309Z,35.14
2022-09-12T17:30:35.155Z,35.09
2022-09-12T17:33:04.579Z,35.99
2022-09-12T17:35:35.232Z,36.30
2022-09-12T17:38:03.016Z,36.36
2022-09-12T17:40:55.658Z,37.02
2022-09-12T17:43:20.315Z,37.73
2022-09-12T17:45:52.034Z,38.29
2022-09-12T17:48:21.798Z,38.36
2022-09-12T17:50:50.590Z,38.23
2022-09-12T17:53:18.275Z,38.10
2022-09-12T17:55:46.037Z,39.24
2022-09-12T17:58:14.043Z,39.02
2022-09-12T18:00:55.766Z,39.51
2022-09-12T18:03:25.175Z,39.02
2022-09-12T18:05:53.867Z,39.33
2022-09-12T18:08:21.720Z,39.27
2022-09-12T18:10:49.887Z,39.68
2022-09-12T18:13:17.738Z,39.93
2022-09-12T18:15:45.663Z,40.72
2022-09-12T18:18:13.539Z,40.81
2022-09-12T18:20:51.065Z,41.45
2022-09-12T18:23:20.041Z,40.92
2022-09-12T18:25:48.645Z,40.99
2022-09-12T18:28:16.395Z,41.24
2022-09-12T18:30:44.095Z,41.59
2022-09-12T18:33:11.785Z,41.27
2022-09-12T18:35:39.682Z,41.43
2022-09-12T18:38:08.827Z,40.82
2022-09-12T18:40:36.905Z,41.14
2022-09-12T18:43:04.629Z,40.81
2022-09-12T18:45:32.363Z,40.48
2022-09-12T18:48:00.327Z,40.25
2022-09-12T18:50:28.179Z,41.07
2022-09-12T18:52:59.642Z,41.06
2022-09-12T18:55:31.889Z,41.00
2022-09-12T18:57:59.616Z,41.54
2022-09-12T19:00:28.183Z,41.52
2022-09-12T19:02:56.296Z,41.35
2022-09-12T19:05:23.945Z,40.71
2022-09-12T19:07:51.654Z,41.18
2022-09-12T19:10:19.626Z,41.26
2022-09-12T19:12:48.708Z,40.94
2022-09-12T19:17:50.773Z,40.37
2022-09-12T19:20:18.604Z,40.46
2022-09-12T19:22:46.458Z,40.18
2022-09-12T19:25:14.176Z,40.26
2022-09-12T19:27:41.783Z,40.54
2022-09-12T19:30:12.508Z,40.02
2022-09-12T19:32:40.161Z,40.36
2022-09-12T19:35:08.514Z,40.32
2022-09-12T19:37:36.140Z,39.82
2022-09-12T19:40:04.818Z,40.40
2022-09-12T19:42:32.469Z,40.21
2022-09-12T19:45:00.161Z,39.92
2022-09-12T19:47:29.338Z,39.76
2022-09-12T19:49:57.227Z,39.82
2022-09-12T19:52:24.921Z,39.94
2022-09-12T19:54:52.695Z,39.56
2022-09-12T19:57:20.389Z,39.97
2022-09-12T19:59:48.087Z,39.96
2022-09-12T20:02:16.035Z,39.78
2022-09-12T20:04:45.391Z,39.64
2022-09-12T20:07:13.085Z,39.82
2022-09-12T20:09:40.849Z,40.01
2022-09-12T20:12:08.830Z,39.74
2022-09-12T20:14:36.655Z,39.99
2022-09-12T20:17:04.291Z,39.82
2022-09-12T20:19:32.272Z,39.76
2022-09-12T20:22:01.378Z,39.72
2022-09-12T20:24:29.690Z,40.39
2022-09-12T20:26:57.632Z,39.94
2022-09-12T20:29:25.461Z,39.98
2022-09-12T20:31:53.269Z,40.47
2022-09-12T20:34:21.604Z,40.15
2022-09-12T20:36:49.687Z,39.83
2022-09-12T20:39:19.961Z,40.14
2022-09-12T20:41:47.646Z,40.52
2022-09-12T20:44:15.306Z,40.62
2022-09-12T20:46:43.178Z,40.11
2022-09-12T20:49:10.809Z,40.16
2022-09-12T20:51:38.478Z,40.40
2022-09-12T20:54:06.734Z,40.37
2022-09-12T20:56:36.361Z,40.50
2022-09-12T20:59:04.335Z,40.76
2022-09-12T21:01:32.345Z,40.08
2022-09-12T21:04:00.288Z,40.17
2022-09-12T21:06:28.153Z,40.77
2022-09-12T21:08:58.261Z,40.83
2022-09-12T21:11:25.927Z,41.01
2022-09-12T21:13:54.963Z,40.41
2022-09-12T21:16:23.596Z,40.68
2022-09-12T21:18:54.178Z,40.94
2022-09-12T21:21:21.938Z,40.45
2022-09-12T21:23:52.698Z,41.14
2022-09-12T21:26:20.403Z,41.09
2022-09-12T21:28:48.992Z,40.97
2022-09-12T21:31:18.567Z,40.79
2022-09-12T21:33:46.328Z,41.26
2022-09-12T21:36:14.272Z,40.97
2022-09-12T21:38:41.892Z,41.06
2022-09-12T21:41:11.297Z,41.26
2022-09-12T21:43:39.141Z,41.56
2022-09-12T21:46:07.405Z,41.44
2022-09-12T21:48:40.435Z,41.25
2022-09-12T21:51:08.109Z,41.46
2022-09-12T21:53:36.372Z,41.34
2022-09-12T21:56:04.939Z,41.37
2022-09-12T21:58:32.842Z,41.38
2022-09-12T22:01:00.990Z,41.62
2022-09-12T22:03:28.888Z,41.56
2022-09-12T22:06:01.482Z,41.96
2022-09-12T22:08:29.588Z,41.82
2022-09-12T22:10:59.411Z,42.34
2022-09-12T22:13:27.189Z,41.89
2022-09-12T22:15:54.951Z,42.41
2022-09-12T22:18:22.637Z,42.22
2022-09-12T22:20:50.322Z,42.42
2022-09-12T22:23:36.572Z,42.43
2022-09-12T22:26:04.282Z,42.36
2022-09-12T22:28:32.189Z,42.62
2022-09-12T22:30:59.874Z,42.47
2022-09-12T22:33:27.588Z,42.26
2022-09-12T22:35:55.511Z,42.64
2022-09-12T22:38:24.734Z,42.37
2022-09-12T22:40:52.387Z,42.24
2022-09-12T22:43:20.043Z,42.11
2022-09-12T22:45:47.650Z,42.22
2022-09-12T22:48:16.989Z,42.25
2022-09-12T22:50:45.092Z,42.49
2022-09-12T22:53:12.729Z,42.54
2022-09-12T22:55:43.671Z,42.93
2022-09-12T22:58:11.536Z,42.92
2022-09-12T23:00:39.190Z,42.97
2022-09-12T23:03:06.919Z,42.97
2022-09-12T23:05:34.537Z,43.31
2022-09-12T23:08:03.825Z,43.03
2022-09-12T23:10:32.169Z,43.42
2022-09-12T23:13:01.264Z,43.10
2022-09-12T23:15:29.237Z,43.25
2022-09-12T23:17:56.960Z,43.49
2022-09-12T23:20:24.562Z,43.11
2022-09-12T23:22:52.266Z,43.28
2022-09-12T23:25:23.199Z,43.76
2022-09-12T23:27:50.903Z,43.69
2022-09-12T23:30:21.364Z,43.70
2022-09-12T23:32:50.059Z,43.60
2022-09-12T23:35:19.442Z,43.41
2022-09-12T23:37:47.305Z,43.70
2022-09-12T23:40:14.948Z,43.82
2022-09-12T23:42:42.769Z,44.24
2022-09-12T23:45:11.241Z,44.32
2022-09-12T23:47:40.367Z,44.47
2022-09-12T23:50:08.536Z,44.21
2022-09-12T23:52:36.208Z,44.56
2022-09-12T23:55:03.857Z,44.67
2022-09-12T23:57:32.542Z,44.27
